sensor_id;sensor_type;location;lat;lon;timestamp;temperature;humidity
210;DHT22;90;48.810;9.120;2022-09-03T00:01:08;19.30;58.90
210;DHT22;90;48.810;9.120;2022-09-03T00:03:39;19.30;58.70
210;DHT22;90;48.810;9.120;2022-09-03T00:06:13;19.20;59.00
210;DHT22;90;48.810;9.120;2022-09-03T00:08:45;19.20;58.60
210;DHT22;90;48.810;9.120;2022-09-03T00:11:18;19.20;58.40
210;DHT22;90;48.810;9.120;2022-09-03T00:13:50;19.20;58.60
210;DHT22;90;48.810;9.120;2022-09-03T00:16:22;19.20;58.50
210;DHT22;90;48.810;9.120;2022-09-03T00:18:53;19.20;58.60
210;DHT22;90;48.810;9.120;2022-09-03T00:21:30;19.20;58.40
210;DHT22;90;48.810;9.120;2022-09-03T00:24:00;19.20;58.50
210;DHT22;90;48.810;9.120;2022-09-03T00:26:32;19.20;58.60
210;DHT22;90;48.810;9.120;2022-09-03T00:29:05;19.30;58.90
210;DHT22;90;48.810;9.120;2022-09-03T00:31:35;19.30;59.60
210;DHT22;90;48.810;9.120;2022-09-03T00:34:10;19.30;60.20
210;DHT22;90;48.810;9.120;2022-09-03T00:36:44;19.30;60.40
210;DHT22;90;48.810;9.120;2022-09-03T00:39:12;19.20;61.10
210;DHT22;90;48.810;9.120;2022-09-03T00:41:56;19.20;61.40
210;DHT22;90;48.810;9.120;2022-09-03T00:44:59;19.00;62.10
210;DHT22;90;48.810;9.120;2022-09-03T00:47:34;19.00;62.50
210;DHT22;90;48.810;9.120;2022-09-03T00:50:11;19.00;62.90
210;DHT22;90;48.810;9.120;2022-09-03T00:52:50;18.90;63.60
210;DHT22;90;48.810;9.120;2022-09-03T00:55:30;18.90;63.50
210;DHT22;90;48.810;9.120;2022-09-03T00:58:11;18.90;63.30
210;DHT22;90;48.810;9.120;2022-09-03T01:00:44;18.90;64.10
210;DHT22;90;48.810;9.120;2022-09-03T01:03:13;18.90;64.00
210;DHT22;90;48.810;9.120;2022-09-03T01:05:55;18.90;64.10
210;DHT22;90;48.810;9.120;2022-09-03T01:08:49;19.00;64.60
210;DHT22;90;48.810;9.120;2022-09-03T01:11:25;18.70;65.30
210;DHT22;90;48.810;9.120;2022-09-03T01:14:03;18.70;65.60
210;DHT22;90;48.810;9.120;2022-09-03T01:16:38;18.70;65.80
210;DHT22;90;48.810;9.120;2022-09-03T01:19:20;18.70;65.70
210;DHT22;90;48.810;9.120;2022-09-03T01:22:13;18.70;65.50
210;DHT22;90;48.810;9.120;2022-09-03T01:25:05;18.70;65.80
210;DHT22;90;48.810;9.120;2022-09-03T01:27:45;18.70;66.10
210;DHT22;90;48.810;9.120;2022-09-03T01:30:17;18.70;66.00
210;DHT22;90;48.810;9.120;2022-09-03T01:32:51;18.70;66.20
210;DHT22;90;48.810;9.120;2022-09-03T01:35:25;18.70;65.90
210;DHT22;90;48.810;9.120;2022-09-03T01:38:03;18.70;66.30
210;DHT22;90;48.810;9.120;2022-09-03T01:40:41;18.60;67.10
210;DHT22;90;48.810;9.120;2022-09-03T01:43:27;18.60;67.50
210;DHT22;90;48.810;9.120;2022-09-03T01:46:01;18.60;67.60
210;DHT22;90;48.810;9.120;2022-09-03T01:48:35;18.60;68.10
210;DHT22;90;48.810;9.120;2022-09-03T01:51:10;18.50;67.80
210;DHT22;90;48.810;9.120;2022-09-03T01:56:53;18.60;68.10
210;DHT22;90;48.810;9.120;2022-09-03T01:59:30;18.60;67.80
210;DHT22;90;48.810;9.120;2022-09-03T02:02:02;18.60;68.00
210;DHT22;90;48.810;9.120;2022-09-03T02:04:32;18.50;68.40
210;DHT22;90;48.810;9.120;2022-09-03T02:07:00;18.40;68.90
210;DHT22;90;48.810;9.120;2022-09-03T02:09:29;18.40;68.90
210;DHT22;90;48.810;9.120;2022-09-03T02:12:00;18.40;68.20
210;DHT22;90;48.810;9.120;2022-09-03T02:14:29;18.50;67.60
210;DHT22;90;48.810;9.120;2022-09-03T02:17:02;18.50;68.20
210;DHT22;90;48.810;9.120;2022-09-03T02:19:31;18.50;67.70
210;DHT22;90;48.810;9.120;2022-09-03T02:21:59;18.50;68.20
210;DHT22;90;48.810;9.120;2022-09-03T02:24:27;18.60;68.00
210;DHT22;90;48.810;9.120;2022-09-03T02:26:55;18.60;67.50
210;DHT22;90;48.810;9.120;2022-09-03T02:29:23;18.60;68.00
210;DHT22;90;48.810;9.120;2022-09-03T02:31:50;18.60;68.30
210;DHT22;90;48.810;9.120;2022-09-03T02:34:19;18.60;68.10
210;DHT22;90;48.810;9.120;2022-09-03T02:36:46;18.50;67.60
210;DHT22;90;48.810;9.120;2022-09-03T02:39:17;18.50;67.70
210;DHT22;90;48.810;9.120;2022-09-03T02:41:44;18.40;67.90
210;DHT22;90;48.810;9.120;2022-09-03T02:44:14;18.40;67.90
210;DHT22;90;48.810;9.120;2022-09-03T02:46:53;18.40;68.20
210;DHT22;90;48.810;9.120;2022-09-03T02:49:24;18.30;68.80
210;DHT22;90;48.810;9.120;2022-09-03T02:51:56;18.30;68.90
210;DHT22;90;48.810;9.120;2022-09-03T02:54:23;18.20;69.20
210;DHT22;90;48.810;9.120;2022-09-03T02:56:51;18.20;69.90
210;DHT22;90;48.810;9.120;2022-09-03T02:59:18;18.20;70.40
210;DHT22;90;48.810;9.120;2022-09-03T03:01:47;18.20;70.20
210;DHT22;90;48.810;9.120;2022-09-03T03:04:14;18.20;70.20
210;DHT22;90;48.810;9.120;2022-09-03T03:06:43;18.20;70.10
210;DHT22;90;48.810;9.120;2022-09-03T03:09:10;18.20;70.10
210;DHT22;90;48.810;9.120;2022-09-03T03:11:37;18.20;69.80
210;DHT22;90;48.810;9.120;2022-09-03T03:14:04;18.10;69.70
210;DHT22;90;48.810;9.120;2022-09-03T03:16:32;18.10;69.80
210;DHT22;90;48.810;9.120;2022-09-03T03:18:59;18.00;70.40
210;DHT22;90;48.810;9.120;2022-09-03T03:21:26;17.90;71.10
210;DHT22;90;48.810;9.120;2022-09-03T03:23:54;17.90;71.00
210;DHT22;90;48.810;9.120;2022-09-03T03:26:22;17.90;70.60
210;DHT22;90;48.810;9.120;2022-09-03T03:28:54;17.90;70.40
210;DHT22;90;48.810;9.120;2022-09-03T03:31:21;17.80;70.30
210;DHT22;90;48.810;9.120;2022-09-03T03:33:50;17.80;70.20
210;DHT22;90;48.810;9.120;2022-09-03T03:36:18;17.70;70.30
210;DHT22;90;48.810;9.120;2022-09-03T03:38:45;17.70;70.60
210;DHT22;90;48.810;9.120;2022-09-03T03:41:16;17.80;70.40
210;DHT22;90;48.810;9.120;2022-09-03T03:43:44;17.70;70.80
210;DHT22;90;48.810;9.120;2022-09-03T03:46:11;17.80;70.30
210;DHT22;90;48.810;9.120;2022-09-03T03:48:40;17.80;69.60
210;DHT22;90;48.810;9.120;2022-09-03T03:51:08;17.90;69.70
210;DHT22;90;48.810;9.120;2022-09-03T03:53:37;17.90;70.50
210;DHT22;90;48.810;9.120;2022-09-03T03:56:06;17.90;70.60
210;DHT22;90;48.810;9.120;2022-09-03T03:58:36;17.90;70.70
210;DHT22;90;48.810;9.120;2022-09-03T04:01:09;18.00;70.40
210;DHT22;90;48.810;9.120;2022-09-03T04:03:36;17.90;70.00
210;DHT22;90;48.810;9.120;2022-09-03T04:06:04;17.90;70.10
210;DHT22;90;48.810;9.120;2022-09-03T04:08:34;17.80;69.30
210;DHT22;90;48.810;9.120;2022-09-03T04:11:02;17.80;69.70
210;DHT22;90;48.810;9.120;2022-09-03T04:13:30;17.90;69.70
210;DHT22;90;48.810;9.120;2022-09-03T04:16:03;17.90;69.20
210;DHT22;90;48.810;9.120;2022-09-03T04:18:30;17.90;69.00
210;DHT22;90;48.810;9.120;2022-09-03T04:21:01;18.00;69.10
210;DHT22;90;48.810;9.120;2022-09-03T04:23:30;18.10;69.30
210;DHT22;90;48.810;9.120;2022-09-03T04:25:57;18.10;69.10
210;DHT22;90;48.810;9.120;2022-09-03T04:28:24;18.00;68.60
210;DHT22;90;48.810;9.120;2022-09-03T04:30:52;18.00;68.40
210;DHT22;90;48.810;9.120;2022-09-03T04:33:24;18.10;68.30
210;DHT22;90;48.810;9.120;2022-09-03T04:35:51;18.10;67.90
210;DHT22;90;48.810;9.120;2022-09-03T04:38:18;18.10;67.90
210;DHT22;90;48.810;9.120;2022-09-03T04:40:51;18.10;68.20
210;DHT22;90;48.810;9.120;2022-09-03T04:43:18;18.10;68.80
210;DHT22;90;48.810;9.120;2022-09-03T04:45:45;18.10;68.80
210;DHT22;90;48.810;9.120;2022-09-03T04:48:12;18.20;68.70
210;DHT22;90;48.810;9.120;2022-09-03T04:50:40;18.10;68.70
210;DHT22;90;48.810;9.120;2022-09-03T04:53:07;18.00;68.80
210;DHT22;90;48.810;9.120;2022-09-03T04:55:35;18.00;68.50
210;DHT22;90;48.810;9.120;2022-09-03T04:58:02;18.20;68.10
210;DHT22;90;48.810;9.120;2022-09-03T05:00:30;18.20;68.40
210;DHT22;90;48.810;9.120;2022-09-03T05:02:59;18.20;68.00
210;DHT22;90;48.810;9.120;2022-09-03T05:05:26;18.20;68.10
210;DHT22;90;48.810;9.120;2022-09-03T05:07:57;18.30;68.20
210;DHT22;90;48.810;9.120;2022-09-03T05:10:24;18.20;69.00
210;DHT22;90;48.810;9.120;2022-09-03T05:12:57;18.20;69.20
210;DHT22;90;48.810;9.120;2022-09-03T05:15:25;18.70;71.10
210;DHT22;90;48.810;9.120;2022-09-03T05:17:55;18.90;68.00
210;DHT22;90;48.810;9.120;2022-09-03T05:20:23;18.90;67.30
210;DHT22;90;48.810;9.120;2022-09-03T05:22:50;18.80;67.50
210;DHT22;90;48.810;9.120;2022-09-03T05:25:18;18.70;68.00
210;DHT22;90;48.810;9.120;2022-09-03T05:27:46;18.60;68.20
210;DHT22;90;48.810;9.120;2022-09-03T05:30:13;18.50;69.10
210;DHT22;90;48.810;9.120;2022-09-03T05:32:41;18.40;70.40
210;DHT22;90;48.810;9.120;2022-09-03T05:35:08;18.40;70.90
210;DHT22;90;48.810;9.120;2022-09-03T05:37:36;18.40;70.80
210;DHT22;90;48.810;9.120;2022-09-03T05:40:04;18.30;70.70
210;DHT22;90;48.810;9.120;2022-09-03T05:42:33;18.30;71.20
210;DHT22;90;48.810;9.120;2022-09-03T05:45:06;18.30;71.20
210;DHT22;90;48.810;9.120;2022-09-03T05:47:36;18.40;70.60
210;DHT22;90;48.810;9.120;2022-09-03T05:50:06;18.50;70.60
210;DHT22;90;48.810;9.120;2022-09-03T05:52:33;18.50;70.40
210;DHT22;90;48.810;9.120;2022-09-03T05:55:01;18.50;70.20
210;DHT22;90;48.810;9.120;2022-09-03T05:57:28;18.50;70.30
210;DHT22;90;48.810;9.120;2022-09-03T05:59:57;18.50;70.10
210;DHT22;90;48.810;9.120;2022-09-03T06:02:24;18.70;69.80
210;DHT22;90;48.810;9.120;2022-09-03T06:04:52;18.70;69.60
210;DHT22;90;48.810;9.120;2022-09-03T06:07:20;18.70;69.90
210;DHT22;90;48.810;9.120;2022-09-03T06:09:47;18.60;70.20
210;DHT22;90;48.810;9.120;2022-09-03T06:12:14;18.70;70.20
210;DHT22;90;48.810;9.120;2022-09-03T06:14:41;18.70;70.90
210;DHT22;90;48.810;9.120;2022-09-03T06:17:10;18.70;71.20
210;DHT22;90;48.810;9.120;2022-09-03T06:19:39;18.70;71.00
210;DHT22;90;48.810;9.120;2022-09-03T06:22:06;18.70;71.20
210;DHT22;90;48.810;9.120;2022-09-03T06:24:33;18.70;71.80
210;DHT22;90;48.810;9.120;2022-09-03T06:27:01;18.80;72.00
210;DHT22;90;48.810;9.120;2022-09-03T06:29:28;18.80;71.70
210;DHT22;90;48.810;9.120;2022-09-03T06:31:55;18.70;71.40
210;DHT22;90;48.810;9.120;2022-09-03T06:34:24;18.70;71.50
210;DHT22;90;48.810;9.120;2022-09-03T06:36:51;18.70;71.20
210;DHT22;90;48.810;9.120;2022-09-03T06:39:19;18.80;71.10
210;DHT22;90;48.810;9.120;2022-09-03T06:41:46;18.90;71.30
210;DHT22;90;48.810;9.120;2022-09-03T06:44:16;18.90;70.80
210;DHT22;90;48.810;9.120;2022-09-03T06:46:43;18.90;70.50
210;DHT22;90;48.810;9.120;2022-09-03T06:49:12;19.00;70.80
210;DHT22;90;48.810;9.120;2022-09-03T06:51:40;19.00;70.80
210;DHT22;90;48.810;9.120;2022-09-03T06:54:10;19.00;71.50
210;DHT22;90;48.810;9.120;2022-09-03T06:56:40;19.10;71.20
210;DHT22;90;48.810;9.120;2022-09-03T06:59:09;19.10;70.90
210;DHT22;90;48.810;9.120;2022-09-03T07:01:37;19.20;70.60
210;DHT22;90;48.810;9.120;2022-09-03T07:04:06;19.30;71.40
210;DHT22;90;48.810;9.120;2022-09-03T07:06:35;19.40;70.70
210;DHT22;90;48.810;9.120;2022-09-03T07:09:05;19.90;68.80
210;DHT22;90;48.810;9.120;2022-09-03T07:11:32;20.40;67.20
210;DHT22;90;48.810;9.120;2022-09-03T07:14:01;20.70;66.00
210;DHT22;90;48.810;9.120;2022-09-03T07:16:30;20.90;65.40
210;DHT22;90;48.810;9.120;2022-09-03T07:18:58;21.10;65.00
210;DHT22;90;48.810;9.120;2022-09-03T07:21:27;21.20;65.00
210;DHT22;90;48.810;9.120;2022-09-03T07:23:57;21.30;64.90
210;DHT22;90;48.810;9.120;2022-09-03T07:26:30;21.40;64.50
210;DHT22;90;48.810;9.120;2022-09-03T07:28:58;21.50;64.30
210;DHT22;90;48.810;9.120;2022-09-03T07:31:27;21.50;64.20
210;DHT22;90;48.810;9.120;2022-09-03T07:33:54;21.60;64.00
210;DHT22;90;48.810;9.120;2022-09-03T07:36:23;21.70;64.10
210;DHT22;90;48.810;9.120;2022-09-03T07:38:53;21.80;63.60
210;DHT22;90;48.810;9.120;2022-09-03T07:41:20;21.80;63.60
210;DHT22;90;48.810;9.120;2022-09-03T07:43:53;21.90;63.40
210;DHT22;90;48.810;9.120;2022-09-03T07:46:21;22.00;63.10
210;DHT22;90;48.810;9.120;2022-09-03T07:48:49;21.80;63.10
210;DHT22;90;48.810;9.120;2022-09-03T07:51:18;21.80;63.40
210;DHT22;90;48.810;9.120;2022-09-03T07:53:45;21.80;63.70
210;DHT22;90;48.810;9.120;2022-09-03T07:56:14;21.90;63.70
210;DHT22;90;48.810;9.120;2022-09-03T07:58:41;22.00;63.60
210;DHT22;90;48.810;9.120;2022-09-03T08:01:11;21.90;63.80
210;DHT22;90;48.810;9.120;2022-09-03T08:03:43;21.90;63.90
210;DHT22;90;48.810;9.120;2022-09-03T08:06:12;21.80;64.30
210;DHT22;90;48.810;9.120;2022-09-03T08:08:39;21.50;65.30
210;DHT22;90;48.810;9.120;2022-09-03T08:11:11;21.20;66.30
210;DHT22;90;48.810;9.120;2022-09-03T08:13:39;21.10;66.80
210;DHT22;90;48.810;9.120;2022-09-03T08:16:11;21.10;67.20
210;DHT22;90;48.810;9.120;2022-09-03T08:18:38;21.30;66.70
210;DHT22;90;48.810;9.120;2022-09-03T08:21:06;21.50;66.40
210;DHT22;90;48.810;9.120;2022-09-03T08:23:36;21.50;66.00
210;DHT22;90;48.810;9.120;2022-09-03T08:26:04;21.50;66.10
210;DHT22;90;48.810;9.120;2022-09-03T08:28:32;21.50;66.20
210;DHT22;90;48.810;9.120;2022-09-03T08:31:04;21.50;66.40
210;DHT22;90;48.810;9.120;2022-09-03T08:33:33;21.50;66.50
210;DHT22;90;48.810;9.120;2022-09-03T08:36:05;21.40;66.60
210;DHT22;90;48.810;9.120;2022-09-03T08:38:32;21.30;66.70
210;DHT22;90;48.810;9.120;2022-09-03T08:41:08;21.30;67.10
210;DHT22;90;48.810;9.120;2022-09-03T08:44:07;21.30;67.30
210;DHT22;90;48.810;9.120;2022-09-03T08:46:42;21.30;67.70
210;DHT22;90;48.810;9.120;2022-09-03T08:49:17;21.20;69.00
210;DHT22;90;48.810;9.120;2022-09-03T08:51:46;21.20;69.50
210;DHT22;90;48.810;9.120;2022-09-03T08:54:15;21.30;69.70
210;DHT22;90;48.810;9.120;2022-09-03T08:56:45;21.30;70.50
210;DHT22;90;48.810;9.120;2022-09-03T08:59:12;21.30;70.70
210;DHT22;90;48.810;9.120;2022-09-03T09:01:51;21.30;69.80
210;DHT22;90;48.810;9.120;2022-09-03T09:04:30;21.30;68.80
210;DHT22;90;48.810;9.120;2022-09-03T09:07:06;21.40;69.10
210;DHT22;90;48.810;9.120;2022-09-03T09:09:43;21.40;69.10
210;DHT22;90;48.810;9.120;2022-09-03T09:12:27;21.40;68.90
210;DHT22;90;48.810;9.120;2022-09-03T09:15:08;21.60;68.00
210;DHT22;90;48.810;9.120;2022-09-03T09:17:50;21.70;66.60
210;DHT22;90;48.810;9.120;2022-09-03T09:20:32;21.60;66.60
210;DHT22;90;48.810;9.120;2022-09-03T09:23:03;21.50;67.10
210;DHT22;90;48.810;9.120;2022-09-03T09:25:31;21.50;67.00
210;DHT22;90;48.810;9.120;2022-09-03T09:28:15;21.50;66.40
210;DHT22;90;48.810;9.120;2022-09-03T09:30:45;21.50;67.10
210;DHT22;90;48.810;9.120;2022-09-03T09:33:13;21.50;67.10
210;DHT22;90;48.810;9.120;2022-09-03T09:35:42;21.60;66.10
210;DHT22;90;48.810;9.120;2022-09-03T09:38:10;21.40;67.00
210;DHT22;90;48.810;9.120;2022-09-03T09:40:38;21.40;67.20
210;DHT22;90;48.810;9.120;2022-09-03T09:43:09;21.40;66.60
210;DHT22;90;48.810;9.120;2022-09-03T09:45:43;21.40;67.10
210;DHT22;90;48.810;9.120;2022-09-03T09:48:25;21.60;66.70
210;DHT22;90;48.810;9.120;2022-09-03T09:51:05;21.90;65.30
210;DHT22;90;48.810;9.120;2022-09-03T09:53:32;21.80;64.10
210;DHT22;90;48.810;9.120;2022-09-03T09:56:01;21.90;63.70
210;DHT22;90;48.810;9.120;2022-09-03T09:58:31;22.00;63.90
210;DHT22;90;48.810;9.120;2022-09-03T10:01:01;22.00;64.00
210;DHT22;90;48.810;9.120;2022-09-03T10:03:32;21.80;65.00
210;DHT22;90;48.810;9.120;2022-09-03T10:06:08;21.80;65.00
210;DHT22;90;48.810;9.120;2022-09-03T10:09:05;21.80;64.60
210;DHT22;90;48.810;9.120;2022-09-03T10:11:35;21.80;64.50
210;DHT22;90;48.810;9.120;2022-09-03T10:14:10;21.90;64.30
210;DHT22;90;48.810;9.120;2022-09-03T10:16:42;22.10;63.70
210;DHT22;90;48.810;9.120;2022-09-03T10:19:16;22.20;63.40
210;DHT22;90;48.810;9.120;2022-09-03T10:21:49;22.40;63.00
210;DHT22;90;48.810;9.120;2022-09-03T10:24:35;22.50;62.20
210;DHT22;90;48.810;9.120;2022-09-03T10:27:07;22.40;62.70
210;DHT22;90;48.810;9.120;2022-09-03T10:29:38;22.40;63.90
210;DHT22;90;48.810;9.120;2022-09-03T10:32:29;22.40;63.60
210;DHT22;90;48.810;9.120;2022-09-03T10:35:05;22.50;63.60
210;DHT22;90;48.810;9.120;2022-09-03T10:37:42;22.70;62.20
210;DHT22;90;48.810;9.120;2022-09-03T10:40:21;22.80;60.90
210;DHT22;90;48.810;9.120;2022-09-03T10:43:08;22.90;60.70
210;DHT22;90;48.810;9.120;2022-09-03T10:45:46;22.80;61.30
210;DHT22;90;48.810;9.120;2022-09-03T10:51:15;22.80;62.70
210;DHT22;90;48.810;9.120;2022-09-03T10:54:08;22.80;62.50
210;DHT22;90;48.810;9.120;2022-09-03T10:56:48;22.90;61.00
210;DHT22;90;48.810;9.120;2022-09-03T10:59:28;22.80;61.30
210;DHT22;90;48.810;9.120;2022-09-03T11:04:58;22.70;62.20
210;DHT22;90;48.810;9.120;2022-09-03T11:07:35;22.60;63.40
210;DHT22;90;48.810;9.120;2022-09-03T11:10:13;22.60;62.60
210;DHT22;90;48.810;9.120;2022-09-03T11:12:45;22.70;62.50
210;DHT22;90;48.810;9.120;2022-09-03T11:15:19;22.60;63.00
210;DHT22;90;48.810;9.120;2022-09-03T11:17:53;22.60;63.60
210;DHT22;90;48.810;9.120;2022-09-03T11:20:24;22.60;64.00
210;DHT22;90;48.810;9.120;2022-09-03T11:22:54;22.80;64.60
210;DHT22;90;48.810;9.120;2022-09-03T11:25:29;22.80;63.10
210;DHT22;90;48.810;9.120;2022-09-03T11:28:07;22.80;63.00
210;DHT22;90;48.810;9.120;2022-09-03T11:30:45;22.90;62.70
210;DHT22;90;48.810;9.120;2022-09-03T11:33:19;22.90;63.20
210;DHT22;90;48.810;9.120;2022-09-03T11:35:55;22.80;64.00
210;DHT22;90;48.810;9.120;2022-09-03T11:38:26;22.80;63.90
210;DHT22;90;48.810;9.120;2022-09-03T11:41:11;22.80;64.00
210;DHT22;90;48.810;9.120;2022-09-03T11:43:40;22.80;63.10
210;DHT22;90;48.810;9.120;2022-09-03T11:46:10;22.70;63.80
210;DHT22;90;48.810;9.120;2022-09-03T11:48:41;22.70;64.50
210;DHT22;90;48.810;9.120;2022-09-03T11:51:31;22.60;64.00
210;DHT22;90;48.810;9.120;2022-09-03T12:00:06;23.00;64.00
210;DHT22;90;48.810;9.120;2022-09-03T12:03:12;23.20;62.50
210;DHT22;90;48.810;9.120;2022-09-03T12:12:13;23.10;63.50
210;DHT22;90;48.810;9.120;2022-09-03T12:15:03;23.00;63.60
210;DHT22;90;48.810;9.120;2022-09-03T12:17:50;23.00;63.50
210;DHT22;90;48.810;9.120;2022-09-03T12:20:41;23.00;63.50
210;DHT22;90;48.810;9.120;2022-09-03T12:23:40;22.90;63.60
210;DHT22;90;48.810;9.120;2022-09-03T12:26:11;22.90;63.90
210;DHT22;90;48.810;9.120;2022-09-03T12:28:42;22.80;64.10
210;DHT22;90;48.810;9.120;2022-09-03T12:31:15;22.60;64.30
210;DHT22;90;48.810;9.120;2022-09-03T12:33:55;22.40;64.80
210;DHT22;90;48.810;9.120;2022-09-03T12:36:26;22.20;65.50
210;DHT22;90;48.810;9.120;2022-09-03T12:39:07;22.10;65.70
210;DHT22;90;48.810;9.120;2022-09-03T12:41:35;22.00;65.90
210;DHT22;90;48.810;9.120;2022-09-03T12:44:04;21.90;67.40
210;DHT22;90;48.810;9.120;2022-09-03T12:46:32;21.60;71.70
210;DHT22;90;48.810;9.120;2022-09-03T12:49:01;21.20;74.20
210;DHT22;90;48.810;9.120;2022-09-03T12:51:32;20.70;77.40
210;DHT22;90;48.810;9.120;2022-09-03T12:54:02;20.40;79.50
210;DHT22;90;48.810;9.120;2022-09-03T12:56:33;20.20;78.80
210;DHT22;90;48.810;9.120;2022-09-03T12:59:04;20.00;81.80
210;DHT22;90;48.810;9.120;2022-09-03T13:01:37;19.90;83.00
210;DHT22;90;48.810;9.120;2022-09-03T13:04:09;19.80;82.70
210;DHT22;90;48.810;9.120;2022-09-03T13:06:46;19.70;83.10
210;DHT22;90;48.810;9.120;2022-09-03T13:09:17;19.70;82.80
210;DHT22;90;48.810;9.120;2022-09-03T13:11:45;19.70;83.30
210;DHT22;90;48.810;9.120;2022-09-03T13:14:15;19.60;83.50
210;DHT22;90;48.810;9.120;2022-09-03T13:17:01;19.60;83.70
210;DHT22;90;48.810;9.120;2022-09-03T13:19:44;19.60;83.40
210;DHT22;90;48.810;9.120;2022-09-03T13:22:23;19.80;83.50
210;DHT22;90;48.810;9.120;2022-09-03T13:25:02;19.90;83.30
210;DHT22;90;48.810;9.120;2022-09-03T13:27:35;20.00;82.60
210;DHT22;90;48.810;9.120;2022-09-03T13:30:09;20.10;82.40
210;DHT22;90;48.810;9.120;2022-09-03T13:32:44;20.20;82.70
210;DHT22;90;48.810;9.120;2022-09-03T13:35:25;20.60;82.90
210;DHT22;90;48.810;9.120;2022-09-03T13:37:57;20.90;81.80
210;DHT22;90;48.810;9.120;2022-09-03T13:40:35;21.20;82.00
210;DHT22;90;48.810;9.120;2022-09-03T13:43:17;21.40;79.60
210;DHT22;90;48.810;9.120;2022-09-03T13:45:51;21.50;80.00
210;DHT22;90;48.810;9.120;2022-09-03T13:48:29;21.50;79.60
210;DHT22;90;48.810;9.120;2022-09-03T13:51:18;21.50;80.70
210;DHT22;90;48.810;9.120;2022-09-03T13:53:54;21.50;80.70
210;DHT22;90;48.810;9.120;2022-09-03T13:56:33;21.50;81.30
210;DHT22;90;48.810;9.120;2022-09-03T13:59:06;21.50;81.10
210;DHT22;90;48.810;9.120;2022-09-03T14:01:50;21.50;82.30
210;DHT22;90;48.810;9.120;2022-09-03T14:04:27;21.50;82.20
210;DHT22;90;48.810;9.120;2022-09-03T14:07:00;21.70;77.70
210;DHT22;90;48.810;9.120;2022-09-03T14:09:35;22.20;75.20
210;DHT22;90;48.810;9.120;2022-09-03T14:12:12;22.40;75.50
210;DHT22;90;48.810;9.120;2022-09-03T14:14:50;22.60;74.20
210;DHT22;90;48.810;9.120;2022-09-03T14:17:30;22.70;74.20
210;DHT22;90;48.810;9.120;2022-09-03T14:20:02;22.70;75.70
210;DHT22;90;48.810;9.120;2022-09-03T14:22:44;22.90;74.00
210;DHT22;90;48.810;9.120;2022-09-03T14:25:16;23.10;74.70
210;DHT22;90;48.810;9.120;2022-09-03T14:27:44;23.00;74.30
210;DHT22;90;48.810;9.120;2022-09-03T14:30:23;22.90;74.70
210;DHT22;90;48.810;9.120;2022-09-03T14:32:57;22.80;75.30
210;DHT22;90;48.810;9.120;2022-09-03T14:35:39;22.80;75.10
210;DHT22;90;48.810;9.120;2022-09-03T14:41:49;22.90;75.00
210;DHT22;90;48.810;9.120;2022-09-03T14:44:31;23.00;75.20
210;DHT22;90;48.810;9.120;2022-09-03T14:47:17;22.90;75.40
210;DHT22;90;48.810;9.120;2022-09-03T14:50:02;22.70;75.30
210;DHT22;90;48.810;9.120;2022-09-03T14:52:58;22.60;75.60
210;DHT22;90;48.810;9.120;2022-09-03T14:58:27;22.80;75.30
210;DHT22;90;48.810;9.120;2022-09-03T15:01:00;22.90;74.50
210;DHT22;90;48.810;9.120;2022-09-03T15:06:46;23.50;72.20
210;DHT22;90;48.810;9.120;2022-09-03T15:09:27;24.00;70.40
210;DHT22;90;48.810;9.120;2022-09-03T15:11:59;24.40;69.10
210;DHT22;90;48.810;9.120;2022-09-03T15:14:34;24.50;68.90
210;DHT22;90;48.810;9.120;2022-09-03T15:17:21;24.50;68.60
210;DHT22;90;48.810;9.120;2022-09-03T15:20:04;24.40;69.00
210;DHT22;90;48.810;9.120;2022-09-03T15:22:51;24.40;68.90
210;DHT22;90;48.810;9.120;2022-09-03T15:25:27;24.40;68.10
210;DHT22;90;48.810;9.120;2022-09-03T15:28:10;24.30;68.40
210;DHT22;90;48.810;9.120;2022-09-03T15:30:43;24.20;68.70
210;DHT22;90;48.810;9.120;2022-09-03T15:33:19;24.10;69.40
210;DHT22;90;48.810;9.120;2022-09-03T15:36:10;24.00;69.50
210;DHT22;90;48.810;9.120;2022-09-03T15:38:48;23.90;69.40
210;DHT22;90;48.810;9.120;2022-09-03T15:41:28;23.90;69.60
210;DHT22;90;48.810;9.120;2022-09-03T15:43:59;24.00;70.00
210;DHT22;90;48.810;9.120;2022-09-03T15:46:36;24.00;69.40
210;DHT22;90;48.810;9.120;2022-09-03T15:49:09;24.10;69.20
210;DHT22;90;48.810;9.120;2022-09-03T15:51:54;24.10;69.30
210;DHT22;90;48.810;9.120;2022-09-03T15:54:38;24.20;68.80
210;DHT22;90;48.810;9.120;2022-09-03T15:57:11;24.20;68.80
210;DHT22;90;48.810;9.120;2022-09-03T15:59:45;24.00;69.00
210;DHT22;90;48.810;9.120;2022-09-03T16:02:19;23.90;69.30
210;DHT22;90;48.810;9.120;2022-09-03T16:05:02;23.90;69.70
210;DHT22;90;48.810;9.120;2022-09-03T16:10:45;23.80;70.20
210;DHT22;90;48.810;9.120;2022-09-03T16:13:31;23.80;69.70
210;DHT22;90;48.810;9.120;2022-09-03T16:16:05;23.90;69.80
210;DHT22;90;48.810;9.120;2022-09-03T16:18:36;23.80;70.00
210;DHT22;90;48.810;9.120;2022-09-03T16:21:08;23.70;70.30
210;DHT22;90;48.810;9.120;2022-09-03T16:23:42;23.60;70.90
210;DHT22;90;48.810;9.120;2022-09-03T16:26:19;23.60;71.70
210;DHT22;90;48.810;9.120;2022-09-03T16:28:52;23.50;72.20
210;DHT22;90;48.810;9.120;2022-09-03T16:31:34;23.50;72.70
210;DHT22;90;48.810;9.120;2022-09-03T16:34:12;23.50;73.30
210;DHT22;90;48.810;9.120;2022-09-03T16:36:47;23.40;73.80
210;DHT22;90;48.810;9.120;2022-09-03T16:39:29;23.40;74.20
210;DHT22;90;48.810;9.120;2022-09-03T16:42:07;23.40;74.60
210;DHT22;90;48.810;9.120;2022-09-03T16:44:46;23.40;74.80
210;DHT22;90;48.810;9.120;2022-09-03T16:47:27;23.40;74.90
210;DHT22;90;48.810;9.120;2022-09-03T16:50:12;23.40;75.20
210;DHT22;90;48.810;9.120;2022-09-03T16:52:48;23.40;75.20
210;DHT22;90;48.810;9.120;2022-09-03T16:55:23;23.40;75.40
210;DHT22;90;48.810;9.120;2022-09-03T16:58:09;23.40;75.60
210;DHT22;90;48.810;9.120;2022-09-03T17:00:58;23.50;76.50
210;DHT22;90;48.810;9.120;2022-09-03T17:04:03;23.60;77.10
210;DHT22;90;48.810;9.120;2022-09-03T17:06:48;23.70;75.70
210;DHT22;90;48.810;9.120;2022-09-03T17:09:33;23.80;74.50
210;DHT22;90;48.810;9.120;2022-09-03T17:12:14;24.10;74.00
210;DHT22;90;48.810;9.120;2022-09-03T17:15:07;24.40;71.70
210;DHT22;90;48.810;9.120;2022-09-03T17:17:52;24.80;70.70
210;DHT22;90;48.810;9.120;2022-09-03T17:20:32;24.80;71.10
210;DHT22;90;48.810;9.120;2022-09-03T17:23:13;25.00;70.50
210;DHT22;90;48.810;9.120;2022-09-03T17:25:52;24.90;70.10
210;DHT22;90;48.810;9.120;2022-09-03T17:28:37;24.70;69.00
210;DHT22;90;48.810;9.120;2022-09-03T17:31:14;24.70;69.00
210;DHT22;90;48.810;9.120;2022-09-03T17:33:58;24.70;68.70
210;DHT22;90;48.810;9.120;2022-09-03T17:36:30;24.60;69.80
210;DHT22;90;48.810;9.120;2022-09-03T17:39:20;24.40;71.30
210;DHT22;90;48.810;9.120;2022-09-03T17:41:53;24.10;71.90
210;DHT22;90;48.810;9.120;2022-09-03T17:44:40;23.70;73.80
210;DHT22;90;48.810;9.120;2022-09-03T17:47:31;23.40;75.10
210;DHT22;90;48.810;9.120;2022-09-03T17:50:07;23.10;76.50
210;DHT22;90;48.810;9.120;2022-09-03T17:52:55;22.80;78.00
210;DHT22;90;48.810;9.120;2022-09-03T17:55:38;22.60;79.80
210;DHT22;90;48.810;9.120;2022-09-03T17:58:12;22.30;80.80
210;DHT22;90;48.810;9.120;2022-09-03T18:00:48;22.20;81.30
210;DHT22;90;48.810;9.120;2022-09-03T18:03:23;22.10;82.00
210;DHT22;90;48.810;9.120;2022-09-03T18:05:57;22.00;82.70
210;DHT22;90;48.810;9.120;2022-09-03T18:08:35;21.80;83.20
210;DHT22;90;48.810;9.120;2022-09-03T18:11:10;21.60;83.90